Portada
METAR-TAF:

METAR-TAF

Aeroports :

Madrid-Getafe, Espanya

latitud: 40-18N, longitud: 003-43W, altitud: 620 m

Observació

L'informe es va fer fa 28 minuts, a les 13:00 UTC
Vent 12 kt del Sud-Oest amb ràfegues de 22 kt, variant entre Sud i Oest
Temperatura 37°C
Humitat 17%
Pressió 1016 hPa
Visibilitat 10 km o més
sense núvols per sota de 1500 mi sense presència de cumulonimbus.

METAR: LEGT 171300Z 22012G22KT 170V260 CAVOK 37/08 Q1016

Hora: 15:28 (13:28 UTC)

Pronòstic

L'informe es va fer fa 2 hores i 28 minuts, a les 11:00 UTC
Pronòstic vàlid del 17 a les 12 UTC al 17 a les 21 UTC
Vent 10 kt del Sud-Oest
Visibilitat 10 km o més
sense núvols per sota de 1500 mi sense presència de cumulonimbus.
Probabilitat 30% :
Temporalment
l' 17 a les 12 UTC al 17 a les 19 UTC
Vent 15 kt del Oest/Sud-Oest amb ràfegues de 25 kt

TAF: LEGT 171100Z 1712/1721 23010KT CAVOK PROB30 TEMPO 1712/1719 24015G25KT

Observacions i pronòstics meteorològics de més de 4000 aeroports (METAR i TAF).

Les estacions disponibles són els punts grocs i vermells al mapa.

Posi el ratolí al punt desitjat per veure el nom de l'estació.

Feu clic per veure les observacions i els pronòstics meteorològics.

Per canviar el mapa: feu clic els botons verds amb una creu de color negre per apropar; al botó verd amb un guió per allunyar la imatge; o en les fletxes verdes per a mapes adjacents.


METAR-TAF: